Time;durP1;ratioP1;P1;durP2;ratioP2;P2;SDS_P1;SDS_P2;PMS_P1;PMS_P2;Temp;Humidity;BMP_temperature;BMP_pressure;BME280_temperature;BME280_humidity;BME280_pressure;Samples;Min_cycle;Max_cycle;Signal;HPM_P1;HPM_P2
2023/12/12 00:01:55;;;;;;;6.30;1.20;;;;;;;;;;4909094;29;20044;-74
2023/12/12 00:04:21;;;;;;;4.00;1.15;;;;;;;;;;4897277;29;20041;-72
2023/12/12 00:06:47;;;;;;;8.43;0.88;;;;;;;;;;4910259;29;20036;-75
2023/12/12 00:09:13;;;;;;;5.15;1.02;;;;;;;;;;4904840;29;20116;-73
2023/12/12 00:11:39;;;;;;;5.13;0.95;;;;;;;;;;4907919;29;20040;-72
2023/12/12 00:14:05;;;;;;;14.35;2.80;;;;;;;;;;4909407;29;20043;-75
2023/12/12 00:16:31;;;;;;;7.00;1.15;;;;;;;;;;4912633;29;20044;-74
2023/12/12 00:18:58;;;;;;;7.85;1.08;;;;;;;;;;4905460;29;20034;-73
2023/12/12 00:21:24;;;;;;;5.53;1.00;;;;;;;;;;4923202;29;20609;-74
2023/12/12 00:23:50;;;;;;;8.65;1.60;;;;;;;;;;4905639;29;20029;-73
2023/12/12 00:26:16;;;;;;;6.30;1.48;;;;;;;;;;4908717;29;20039;-73
2023/12/12 00:28:42;;;;;;;14.98;1.77;;;;;;;;;;4907038;29;20075;-74
2023/12/12 00:31:08;;;;;;;8.40;1.73;;;;;;;;;;4916029;29;20032;-74
2023/12/12 00:33:34;;;;;;;8.93;1.63;;;;;;;;;;4906311;29;20039;-73
2023/12/12 00:36:01;;;;;;;14.15;2.40;;;;;;;;;;4897157;29;20051;-73
2023/12/12 00:38:30;;;;;;;8.10;1.92;;;;;;;;;;4904625;29;20067;-73
2023/12/12 00:40:56;;;;;;;10.88;3.25;;;;;;;;;;4899496;29;20485;-73
2023/12/12 00:43:24;;;;;;;5.75;2.00;;;;;;;;;;4904808;29;20036;-74
2023/12/12 00:45:50;;;;;;;7.88;2.08;;;;;;;;;;4908815;29;20098;-74
2023/12/12 00:48:17;;;;;;;10.65;1.83;;;;;;;;;;4916030;29;20036;-76
2023/12/12 00:50:43;;;;;;;13.35;2.30;;;;;;;;;;4896623;29;20029;-80
2023/12/12 00:53:09;;;;;;;5.82;1.42;;;;;;;;;;4896338;29;20024;-74
2023/12/12 00:55:35;;;;;;;10.60;3.33;;;;;;;;;;4896800;29;20052;-75
2023/12/12 00:58:01;;;;;;;14.75;1.63;;;;;;;;;;4908885;29;20039;-74
2023/12/12 01:00:27;;;;;;;9.82;1.90;;;;;;;;;;4902320;29;20042;-77
2023/12/12 01:02:53;;;;;;;6.18;1.67;;;;;;;;;;4920423;29;20609;-74
2023/12/12 01:05:19;;;;;;;14.73;1.50;;;;;;;;;;4903567;29;20059;-74
2023/12/12 01:07:45;;;;;;;8.18;1.70;;;;;;;;;;4897574;29;20561;-79
2023/12/12 01:10:11;;;;;;;8.93;2.88;;;;;;;;;;4903123;29;20071;-76
2023/12/12 01:12:37;;;;;;;12.48;1.75;;;;;;;;;;4900765;29;20043;-74
2023/12/12 01:15:03;;;;;;;7.90;1.42;;;;;;;;;;4902974;29;20048;-74
2023/12/12 01:17:30;;;;;;;6.05;1.45;;;;;;;;;;4907623;29;20032;-73
2023/12/12 01:19:56;;;;;;;6.70;2.15;;;;;;;;;;4908903;29;20028;-75
2023/12/12 01:22:22;;;;;;;3.15;1.60;;;;;;;;;;4910506;29;20115;-74
2023/12/12 01:24:48;;;;;;;9.05;1.65;;;;;;;;;;4910636;29;20040;-75
2023/12/12 01:27:14;;;;;;;7.35;1.73;;;;;;;;;;4908907;29;20036;-74
2023/12/12 01:29:40;;;;;;;5.00;1.70;;;;;;;;;;4899389;29;20108;-76
2023/12/12 01:32:06;;;;;;;7.43;2.03;;;;;;;;;;4905026;29;20036;-74
2023/12/12 01:34:33;;;;;;;13.52;2.38;;;;;;;;;;4910303;29;20040;-75
2023/12/12 01:36:59;;;;;;;5.90;1.60;;;;;;;;;;4909311;29;20504;-74
2023/12/12 01:39:25;;;;;;;6.57;2.10;;;;;;;;;;4912206;29;20036;-74
2023/12/12 01:41:51;;;;;;;13.88;2.15;;;;;;;;;;4898867;29;20492;-75
2023/12/12 01:44:17;;;;;;;7.38;1.75;;;;;;;;;;4911415;29;20025;-78
2023/12/12 01:46:48;;;;;;;12.88;2.80;;;;;;;;;;4908068;29;20147;-71
2023/12/12 01:49:18;;;;;;;11.70;2.10;;;;;;;;;;4917948;29;20482;-72
2023/12/12 01:51:45;;;;;;;6.38;2.20;;;;;;;;;;4912201;29;20032;-72
2023/12/12 01:54:12;;;;;;;7.07;2.53;;;;;;;;;;4903573;29;20075;-72
2023/12/12 01:56:39;;;;;;;10.50;2.97;;;;;;;;;;4895271;29;20068;-72
2023/12/12 01:59:05;;;;;;;5.03;1.70;;;;;;;;;;4900649;29;20028;-74
2023/12/12 02:01:31;;;;;;;13.38;2.70;;;;;;;;;;4904567;29;20533;-72
2023/12/12 02:03:58;;;;;;;10.50;1.95;;;;;;;;;;4910623;29;20051;-72
2023/12/12 02:06:24;;;;;;;5.53;2.28;;;;;;;;;;4913169;29;20040;-73
2023/12/12 02:08:51;;;;;;;6.75;2.30;;;;;;;;;;4899509;29;20414;-72
2023/12/12 02:11:17;;;;;;;12.02;2.03;;;;;;;;;;4931258;28;20628;-73
2023/12/12 02:13:43;;;;;;;10.15;2.58;;;;;;;;;;4903746;29;20861;-74
2023/12/12 02:16:09;;;;;;;6.78;1.65;;;;;;;;;;4914450;29;20048;-76
2023/12/12 02:18:36;;;;;;;7.88;1.90;;;;;;;;;;4893148;29;20028;-73
2023/12/12 02:21:02;;;;;;;9.27;2.03;;;;;;;;;;4908450;29;20111;-74
2023/12/12 02:23:28;;;;;;;8.52;1.85;;;;;;;;;;4902741;29;20040;-74
2023/12/12 02:25:55;;;;;;;6.63;2.83;;;;;;;;;;4907501;29;20134;-73
2023/12/12 02:28:21;;;;;;;9.02;2.63;;;;;;;;;;4905384;29;20115;-75
2023/12/12 02:30:47;;;;;;;6.75;1.90;;;;;;;;;;4916463;29;20043;-73
2023/12/12 02:33:13;;;;;;;8.52;2.13;;;;;;;;;;4903404;29;20067;-74
2023/12/12 02:35:39;;;;;;;8.02;1.92;;;;;;;;;;4911298;29;20052;-78
2023/12/12 02:38:05;;;;;;;12.30;1.73;;;;;;;;;;4901190;29;20036;-74
2023/12/12 02:40:32;;;;;;;8.38;1.70;;;;;;;;;;4911905;29;20028;-72
2023/12/12 02:42:58;;;;;;;5.47;2.00;;;;;;;;;;4896937;29;20076;-72
2023/12/12 02:45:24;;;;;;;9.35;1.95;;;;;;;;;;4911918;29;20486;-76
2023/12/12 02:47:51;;;;;;;10.48;1.73;;;;;;;;;;4905873;29;20071;-73
2023/12/12 02:50:17;;;;;;;11.02;1.60;;;;;;;;;;4911057;29;20032;-74
2023/12/12 02:52:43;;;;;;;11.20;1.83;;;;;;;;;;4911997;29;20028;-76
2023/12/12 02:55:09;;;;;;;6.38;1.85;;;;;;;;;;4902116;29;20028;-73
2023/12/12 02:57:35;;;;;;;6.05;2.13;;;;;;;;;;4911455;29;20036;-74
2023/12/12 03:00:01;;;;;;;10.02;2.80;;;;;;;;;;4902930;29;20037;-74
2023/12/12 03:02:27;;;;;;;14.88;2.33;;;;;;;;;;4914603;29;20065;-74
2023/12/12 03:04:54;;;;;;;6.85;1.75;;;;;;;;;;4908536;29;20028;-73
2023/12/12 03:07:20;;;;;;;8.15;3.13;;;;;;;;;;4910165;29;20039;-73
2023/12/12 03:09:46;;;;;;;7.70;2.08;;;;;;;;;;4906244;29;20088;-75
2023/12/12 03:12:12;;;;;;;3.08;1.67;;;;;;;;;;4902317;29;20159;-73
2023/12/12 03:14:38;;;;;;;11.93;1.98;;;;;;;;;;4907057;29;20036;-74
2023/12/12 03:17:05;;;;;;;7.03;2.20;;;;;;;;;;4907054;29;20056;-76
2023/12/12 03:19:31;;;;;;;11.63;2.38;;;;;;;;;;4905035;29;20055;-80
2023/12/12 03:21:57;;;;;;;5.90;1.98;;;;;;;;;;4894400;29;20039;-73
2023/12/12 03:24:23;;;;;;;9.65;2.10;;;;;;;;;;4900887;29;20042;-73
2023/12/12 03:26:49;;;;;;;6.25;2.20;;;;;;;;;;4900127;29;20047;-73
2023/12/12 03:29:15;;;;;;;5.90;1.73;;;;;;;;;;4903718;29;20032;-73
2023/12/12 03:31:41;;;;;;;8.13;2.72;;;;;;;;;;4905921;29;20032;-74
2023/12/12 03:34:08;;;;;;;9.07;2.03;;;;;;;;;;4906289;29;20028;-75
2023/12/12 03:36:34;;;;;;;11.18;2.10;;;;;;;;;;4895757;29;20028;-75
2023/12/12 03:39:00;;;;;;;10.05;2.35;;;;;;;;;;4911348;29;20091;-71
2023/12/12 03:41:26;;;;;;;16.95;4.65;;;;;;;;;;4895206;29;20037;-74
2023/12/12 03:43:52;;;;;;;8.13;2.33;;;;;;;;;;4899552;29;20043;-73
2023/12/12 03:46:18;;;;;;;26.48;11.20;;;;;;;;;;4910060;29;20498;-73
2023/12/12 03:48:45;;;;;;;9.82;2.47;;;;;;;;;;4894730;29;20204;-73
2023/12/12 03:51:11;;;;;;;9.27;2.47;;;;;;;;;;4907069;29;20075;-73
2023/12/12 03:53:37;;;;;;;6.15;2.63;;;;;;;;;;4907883;29;20139;-75
2023/12/12 03:56:03;;;;;;;11.13;2.80;;;;;;;;;;4912046;29;20048;-77
2023/12/12 03:58:29;;;;;;;10.00;2.70;;;;;;;;;;4913887;29;20073;-75
2023/12/12 04:00:55;;;;;;;9.95;2.53;;;;;;;;;;4912809;29;20052;-74
2023/12/12 04:03:22;;;;;;;8.65;2.42;;;;;;;;;;4902473;29;20135;-74
2023/12/12 04:05:48;;;;;;;7.97;2.50;;;;;;;;;;4906984;29;20041;-76
2023/12/12 04:08:14;;;;;;;12.75;3.28;;;;;;;;;;4913439;29;20024;-74
2023/12/12 04:10:40;;;;;;;8.13;2.42;;;;;;;;;;4913398;29;20087;-72
2023/12/12 04:13:06;;;;;;;33.67;13.35;;;;;;;;;;4906988;29;20028;-75
2023/12/12 04:15:32;;;;;;;17.88;6.95;;;;;;;;;;4919582;29;20039;-73
2023/12/12 04:17:58;;;;;;;45.45;18.83;;;;;;;;;;4906758;29;20532;-74
2023/12/12 04:20:24;;;;;;;15.73;5.55;;;;;;;;;;4914903;29;20083;-73
2023/12/12 04:22:50;;;;;;;11.50;4.43;;;;;;;;;;4901023;29;20376;-74
2023/12/12 04:25:16;;;;;;;8.07;2.92;;;;;;;;;;4912970;29;20442;-76
2023/12/12 04:27:42;;;;;;;8.57;3.53;;;;;;;;;;4904913;29;20137;-75
2023/12/12 04:30:08;;;;;;;10.75;3.47;;;;;;;;;;4916120;29;20048;-77
2023/12/12 04:32:34;;;;;;;11.80;3.70;;;;;;;;;;4920109;29;20045;-77
2023/12/12 04:35:01;;;;;;;12.52;3.90;;;;;;;;;;4909671;29;20036;-76
2023/12/12 04:37:27;;;;;;;12.35;4.13;;;;;;;;;;4911677;29;20464;-77
2023/12/12 04:39:53;;;;;;;17.50;4.60;;;;;;;;;;4913479;29;20036;-74
2023/12/12 04:42:19;;;;;;;15.43;5.47;;;;;;;;;;4911848;29;20119;-75
2023/12/12 04:44:45;;;;;;;14.38;4.47;;;;;;;;;;4911778;29;20058;-74
2023/12/12 04:47:13;;;;;;;11.65;5.68;;;;;;;;;;4911191;29;20431;-75
2023/12/12 04:49:39;;;;;;;16.80;5.35;;;;;;;;;;4898721;29;20065;-74
2023/12/12 04:52:05;;;;;;;15.23;5.60;;;;;;;;;;4904095;29;20116;-77
2023/12/12 04:54:31;;;;;;;14.85;5.45;;;;;;;;;;4909880;29;20034;-79
2023/12/12 04:56:58;;;;;;;21.60;6.03;;;;;;;;;;4909064;29;20036;-74
2023/12/12 04:59:24;;;;;;;20.17;5.25;;;;;;;;;;4899133;29;20435;-73
2023/12/12 05:01:50;;;;;;;12.65;6.15;;;;;;;;;;4923324;29;20075;-75
2023/12/12 05:04:16;;;;;;;20.92;6.65;;;;;;;;;;4904919;29;20063;-74
2023/12/12 05:06:43;;;;;;;16.25;5.88;;;;;;;;;;4895949;29;20394;-74
2023/12/12 05:09:09;;;;;;;21.20;5.97;;;;;;;;;;4904716;29;20131;-74
2023/12/12 05:11:36;;;;;;;15.75;6.60;;;;;;;;;;4912599;29;20406;-74
2023/12/12 05:14:05;;;;;;;12.63;6.68;;;;;;;;;;4905685;29;20024;-75
2023/12/12 05:16:32;;;;;;;13.48;6.00;;;;;;;;;;4895762;29;20036;-74
2023/12/12 05:18:58;;;;;;;17.70;6.20;;;;;;;;;;4905182;29;20103;-75
2023/12/12 05:21:24;;;;;;;18.65;5.95;;;;;;;;;;4905430;29;20084;-74
2023/12/12 05:23:50;;;;;;;18.27;5.95;;;;;;;;;;4906390;29;20043;-74
2023/12/12 05:26:19;;;;;;;15.80;6.15;;;;;;;;;;4905140;29;20115;-75
2023/12/12 05:28:46;;;;;;;11.93;5.47;;;;;;;;;;4902047;29;20736;-74
2023/12/12 05:31:12;;;;;;;14.25;5.40;;;;;;;;;;4912085;29;20036;-74
2023/12/12 05:33:38;;;;;;;13.70;6.57;;;;;;;;;;4897752;29;20037;-74
2023/12/12 05:36:05;;;;;;;10.25;5.13;;;;;;;;;;4909335;29;20064;-74
2023/12/12 05:38:31;;;;;;;16.38;6.05;;;;;;;;;;4912890;29;20047;-79
2023/12/12 05:40:57;;;;;;;15.77;5.38;;;;;;;;;;4912000;29;20410;-80
2023/12/12 05:43:23;;;;;;;19.48;6.35;;;;;;;;;;4898749;29;20411;-75
2023/12/12 05:45:49;;;;;;;16.40;5.68;;;;;;;;;;4906739;29;20054;-74
2023/12/12 05:48:15;;;;;;;19.17;5.57;;;;;;;;;;4904988;29;20043;-74
2023/12/12 05:50:41;;;;;;;14.27;6.95;;;;;;;;;;4913845;29;20386;-73
2023/12/12 05:53:08;;;;;;;14.43;5.65;;;;;;;;;;4908299;29;20062;-74
2023/12/12 05:55:34;;;;;;;12.65;5.78;;;;;;;;;;4912128;29;20047;-74
2023/12/12 05:58:00;;;;;;;14.18;6.03;;;;;;;;;;4897802;29;20055;-79
2023/12/12 06:00:29;;;;;;;12.02;5.78;;;;;;;;;;4900120;29;20029;-74
2023/12/12 06:02:55;;;;;;;9.18;5.40;;;;;;;;;;4914546;29;20055;-73
2023/12/12 06:05:21;;;;;;;16.30;5.45;;;;;;;;;;4905193;29;20399;-78
2023/12/12 06:07:47;;;;;;;14.25;6.10;;;;;;;;;;4907125;29;20129;-76
2023/12/12 06:10:13;;;;;;;14.68;6.47;;;;;;;;;;4902136;29;20032;-74
2023/12/12 06:12:39;;;;;;;17.17;7.25;;;;;;;;;;4906046;29;20032;-75
2023/12/12 06:15:09;;;;;;;14.45;6.20;;;;;;;;;;4904919;29;20036;-76
2023/12/12 06:17:35;;;;;;;21.33;7.82;;;;;;;;;;4908962;29;20037;-74
2023/12/12 06:20:02;;;;;;;15.30;9.18;;;;;;;;;;4912223;29;20119;-81
2023/12/12 06:22:29;;;;;;;19.38;11.25;;;;;;;;;;4899502;29;20091;-77
2023/12/12 06:24:55;;;;;;;21.42;9.93;;;;;;;;;;4898961;29;20072;-78
2023/12/12 06:27:21;;;;;;;14.88;7.10;;;;;;;;;;4910218;29;20401;-73
2023/12/12 06:29:49;;;;;;;20.45;9.90;;;;;;;;;;4903000;29;20046;-76
2023/12/12 06:32:16;;;;;;;28.33;16.08;;;;;;;;;;4913240;29;20032;-75
2023/12/12 06:34:43;;;;;;;20.75;7.97;;;;;;;;;;4911207;29;20111;-79
2023/12/12 06:37:10;;;;;;;16.60;8.07;;;;;;;;;;4903566;29;20052;-77
2023/12/12 06:39:36;;;;;;;18.15;7.90;;;;;;;;;;4912108;29;20036;-75
2023/12/12 06:42:02;;;;;;;14.65;7.38;;;;;;;;;;4908989;29;20080;-75
2023/12/12 06:44:28;;;;;;;43.55;10.93;;;;;;;;;;4935488;28;20037;-76
2023/12/12 06:46:55;;;;;;;24.02;9.43;;;;;;;;;;4907607;29;20055;-78
2023/12/12 06:49:21;;;;;;;18.55;8.95;;;;;;;;;;4910812;29;20054;-77
2023/12/12 06:51:47;;;;;;;27.85;10.00;;;;;;;;;;4909555;29;20028;-80
2023/12/12 06:54:13;;;;;;;42.17;11.35;;;;;;;;;;4900931;29;20044;-76
2023/12/12 06:56:40;;;;;;;25.77;10.80;;;;;;;;;;4905110;29;20044;-75
2023/12/12 06:59:06;;;;;;;54.95;11.80;;;;;;;;;;4905172;29;20028;-78
2023/12/12 07:01:32;;;;;;;50.65;13.20;;;;;;;;;;4907803;29;20036;-78
2023/12/12 07:03:58;;;;;;;128.77;15.32;;;;;;;;;;4911732;29;20414;-75
2023/12/12 07:06:24;;;;;;;112.60;14.43;;;;;;;;;;4895716;29;20035;-75
2023/12/12 07:08:51;;;;;;;158.65;17.27;;;;;;;;;;4912519;29;20040;-78
2023/12/12 07:11:17;;;;;;;191.68;19.08;;;;;;;;;;4911055;29;20036;-75
2023/12/12 07:13:43;;;;;;;199.65;28.83;;;;;;;;;;4894619;29;20047;-75
2023/12/12 07:16:10;;;;;;;176.70;21.77;;;;;;;;;;4905679;29;20032;-73
2023/12/12 07:18:39;;;;;;;224.27;23.33;;;;;;;;;;4907438;29;20024;-72
2023/12/12 07:21:08;;;;;;;165.90;23.40;;;;;;;;;;4911848;29;20060;-75
2023/12/12 07:23:34;;;;;;;198.05;20.85;;;;;;;;;;4897005;29;20096;-75
2023/12/12 07:26:01;;;;;;;286.40;25.55;;;;;;;;;;4908771;29;20032;-73
2023/12/12 07:28:27;;;;;;;204.20;19.80;;;;;;;;;;4906398;29;20071;-79
2023/12/12 07:30:53;;;;;;;331.45;26.67;;;;;;;;;;4908954;29;20423;-73
2023/12/12 07:33:19;;;;;;;495.85;206.80;;;;;;;;;;4916067;29;20028;-76
2023/12/12 07:35:46;;;;;;;270.70;43.22;;;;;;;;;;4914410;29;20043;-73
2023/12/12 07:38:12;;;;;;;200.82;24.75;;;;;;;;;;4916401;29;20036;-74
2023/12/12 07:40:38;;;;;;;292.38;24.58;;;;;;;;;;4908832;29;20501;-73
2023/12/12 07:43:04;;;;;;;452.23;30.35;;;;;;;;;;4911806;29;20114;-73
2023/12/12 07:45:30;;;;;;;299.33;24.10;;;;;;;;;;4910226;29;20410;-74
2023/12/12 07:47:56;;;;;;;306.95;23.05;;;;;;;;;;4910993;29;20036;-81
2023/12/12 07:50:22;;;;;;;224.73;21.15;;;;;;;;;;4910711;29;20545;-75
2023/12/12 07:52:49;;;;;;;307.02;27.13;;;;;;;;;;4901376;29;20031;-74
2023/12/12 07:55:16;;;;;;;284.20;24.83;;;;;;;;;;4920255;29;20038;-73
2023/12/12 07:57:42;;;;;;;256.02;23.92;;;;;;;;;;4905971;29;20111;-73
2023/12/12 08:00:10;;;;;;;387.63;29.52;;;;;;;;;;4913976;29;20478;-73
2023/12/12 08:02:36;;;;;;;499.55;33.05;;;;;;;;;;4900690;29;20044;-76
2023/12/12 08:05:03;;;;;;;394.05;29.38;;;;;;;;;;4910219;29;20084;-72
2023/12/12 08:07:29;;;;;;;333.17;24.20;;;;;;;;;;4909094;29;20174;-74
2023/12/12 08:09:55;;;;;;;398.02;28.17;;;;;;;;;;4903446;29;20427;-74
2023/12/12 08:12:23;;;;;;;367.88;26.85;;;;;;;;;;4905265;29;20417;-74
2023/12/12 08:14:49;;;;;;;456.00;30.60;;;;;;;;;;4910334;29;20035;-74
2023/12/12 08:17:15;;;;;;;384.85;28.30;;;;;;;;;;4912216;29;20040;-78
2023/12/12 08:19:41;;;;;;;367.90;26.60;;;;;;;;;;4900572;29;20036;-77
2023/12/12 08:22:07;;;;;;;333.73;24.00;;;;;;;;;;4915930;29;20103;-75
2023/12/12 08:24:33;;;;;;;298.23;23.52;;;;;;;;;;4909311;29;20458;-73
2023/12/12 08:26:59;;;;;;;323.42;23.95;;;;;;;;;;4906996;29;20462;-73
2023/12/12 08:29:26;;;;;;;234.85;21.55;;;;;;;;;;4900453;29;20029;-74
2023/12/12 08:31:52;;;;;;;176.48;21.55;;;;;;;;;;4921599;29;20067;-72
2023/12/12 08:34:18;;;;;;;238.23;23.98;;;;;;;;;;4904587;29;20111;-74
2023/12/12 08:36:44;;;;;;;214.70;24.77;;;;;;;;;;4914542;29;20054;-76
2023/12/12 08:39:12;;;;;;;255.68;25.98;;;;;;;;;;4915568;29;20024;-77
2023/12/12 08:41:38;;;;;;;180.50;25.10;;;;;;;;;;4913824;29;20028;-77
2023/12/12 08:44:05;;;;;;;189.55;25.02;;;;;;;;;;4914808;29;20448;-76
2023/12/12 08:46:31;;;;;;;104.78;24.27;;;;;;;;;;4913261;29;20394;-82
2023/12/12 08:48:57;;;;;;;57.95;23.45;;;;;;;;;;4913555;29;20032;-78
2023/12/12 08:51:23;;;;;;;149.00;27.05;;;;;;;;;;4908954;29;20115;-75
2023/12/12 08:53:51;;;;;;;110.35;24.05;;;;;;;;;;4902164;29;20036;-79
2023/12/12 08:56:17;;;;;;;188.35;30.10;;;;;;;;;;4911289;29;20478;-77
2023/12/12 08:58:44;;;;;;;112.18;34.42;;;;;;;;;;4908534;29;20040;-76
2023/12/12 09:01:10;;;;;;;205.00;99.22;;;;;;;;;;4911589;29;20043;-81
2023/12/12 09:03:36;;;;;;;191.88;29.77;;;;;;;;;;4896777;29;20063;-78
2023/12/12 09:06:03;;;;;;;155.07;27.60;;;;;;;;;;4905814;29;20040;-71
2023/12/12 09:08:30;;;;;;;152.02;30.83;;;;;;;;;;4907119;29;21828;-72
2023/12/12 09:10:56;;;;;;;91.47;26.60;;;;;;;;;;4905936;29;20036;-74
2023/12/12 09:13:22;;;;;;;120.53;24.90;;;;;;;;;;4914550;29;20047;-75
2023/12/12 09:15:48;;;;;;;113.80;25.33;;;;;;;;;;4914023;29;20051;-76
2023/12/12 09:18:15;;;;;;;292.23;32.58;;;;;;;;;;4909379;29;20135;-76
2023/12/12 09:20:41;;;;;;;372.02;33.80;;;;;;;;;;4906878;29;20545;-76
2023/12/12 09:23:07;;;;;;;166.63;27.00;;;;;;;;;;4906762;29;20067;-79
2023/12/12 09:25:33;;;;;;;224.35;28.58;;;;;;;;;;4914714;29;20080;-75
2023/12/12 09:27:59;;;;;;;98.90;23.00;;;;;;;;;;4906669;29;20088;-78
2023/12/12 09:30:25;;;;;;;100.57;21.10;;;;;;;;;;4898220;29;20048;-81
2023/12/12 09:32:51;;;;;;;93.28;23.05;;;;;;;;;;4914825;29;20114;-75
2023/12/12 09:35:17;;;;;;;141.25;22.33;;;;;;;;;;4913087;29;20032;-78
2023/12/12 09:37:43;;;;;;;46.35;21.42;;;;;;;;;;4913921;29;20067;-81
2023/12/12 09:40:09;;;;;;;44.13;19.33;;;;;;;;;;4912018;29;20039;-77
2023/12/12 09:42:36;;;;;;;47.53;19.17;;;;;;;;;;4912941;29;20044;-76
2023/12/12 09:45:04;;;;;;;29.30;17.55;;;;;;;;;;4907599;29;20033;-80
2023/12/12 09:47:33;;;;;;;43.45;18.73;;;;;;;;;;4914120;29;20095;-77
2023/12/12 09:50:00;;;;;;;49.58;21.08;;;;;;;;;;4906526;29;20047;-76
2023/12/12 09:52:27;;;;;;;90.30;21.45;;;;;;;;;;4898788;29;20046;-78
2023/12/12 09:54:54;;;;;;;41.78;18.48;;;;;;;;;;4904977;29;20021;-78
2023/12/12 09:57:20;;;;;;;34.80;17.42;;;;;;;;;;4914078;29;20051;-78
2023/12/12 09:59:46;;;;;;;35.15;17.85;;;;;;;;;;4911717;29;20091;-77
2023/12/12 10:02:16;;;;;;;32.85;19.25;;;;;;;;;;4903692;29;20442;-78
2023/12/12 10:04:43;;;;;;;32.25;20.63;;;;;;;;;;4906477;29;20043;-77
2023/12/12 10:07:09;;;;;;;42.25;26.90;;;;;;;;;;4902430;29;20103;-73
2023/12/12 10:09:36;;;;;;;24.00;16.75;;;;;;;;;;4910107;29;20123;-76
2023/12/12 10:12:02;;;;;;;28.85;17.23;;;;;;;;;;4907688;29;20497;-72
2023/12/12 10:14:37;;;;;;;28.02;16.15;;;;;;;;;;4909112;29;20498;-77
2023/12/12 10:17:04;;;;;;;24.13;15.68;;;;;;;;;;4900236;29;20044;-74
2023/12/12 10:19:31;;;;;;;24.75;15.77;;;;;;;;;;4912224;29;20032;-76
2023/12/12 10:22:00;;;;;;;23.75;16.25;;;;;;;;;;4904101;29;20032;-74
2023/12/12 10:24:26;;;;;;;21.73;15.15;;;;;;;;;;4897687;29;20494;-74
2023/12/12 10:26:53;;;;;;;45.45;27.40;;;;;;;;;;4899888;29;20036;-77
2023/12/12 10:29:22;;;;;;;54.13;36.38;;;;;;;;;;4907151;29;20036;-73
2023/12/12 10:31:48;;;;;;;27.88;16.40;;;;;;;;;;4914493;29;20395;-73
2023/12/12 10:34:14;;;;;;;27.55;16.30;;;;;;;;;;4903210;29;20518;-73
2023/12/12 10:36:42;;;;;;;23.02;16.35;;;;;;;;;;4895337;29;20495;-73
2023/12/12 10:39:15;;;;;;;24.63;16.45;;;;;;;;;;4900350;29;20096;-77
2023/12/12 10:41:51;;;;;;;22.20;16.27;;;;;;;;;;4897007;29;20064;-72
2023/12/12 10:44:19;;;;;;;23.48;15.73;;;;;;;;;;4905958;29;20020;-75
2023/12/12 10:46:47;;;;;;;26.08;15.93;;;;;;;;;;4906472;29;23384;-72
2023/12/12 10:49:13;;;;;;;23.33;16.63;;;;;;;;;;4910462;29;20474;-74
2023/12/12 10:51:39;;;;;;;24.10;15.85;;;;;;;;;;4900236;29;20031;-77
2023/12/12 10:54:06;;;;;;;25.05;16.42;;;;;;;;;;4901316;29;20065;-75
2023/12/12 10:56:35;;;;;;;24.75;17.23;;;;;;;;;;4905017;29;20036;-75
2023/12/12 10:59:03;;;;;;;22.88;16.17;;;;;;;;;;4904420;29;20479;-75
2023/12/12 11:01:29;;;;;;;28.40;17.48;;;;;;;;;;4913222;29;20453;-75
2023/12/12 11:03:57;;;;;;;28.70;17.17;;;;;;;;;;4907770;29;20056;-73
2023/12/12 11:06:24;;;;;;;24.60;17.15;;;;;;;;;;4929863;29;20036;-73
2023/12/12 11:08:52;;;;;;;22.25;16.92;;;;;;;;;;4904968;29;20076;-72
2023/12/12 11:11:19;;;;;;;23.35;16.30;;;;;;;;;;4905022;29;20024;-76
2023/12/12 11:13:46;;;;;;;22.77;15.23;;;;;;;;;;4897159;29;20040;-76
2023/12/12 11:16:13;;;;;;;23.35;15.88;;;;;;;;;;4907999;29;20596;-78
2023/12/12 11:18:42;;;;;;;25.88;14.63;;;;;;;;;;4914479;29;20048;-74
2023/12/12 11:21:08;;;;;;;20.58;15.00;;;;;;;;;;4911362;29;20043;-75
2023/12/12 11:23:43;;;;;;;22.65;15.02;;;;;;;;;;4909799;29;20028;-75
2023/12/12 11:26:09;;;;;;;22.20;14.40;;;;;;;;;;4914051;29;20536;-76
2023/12/12 11:28:39;;;;;;;21.85;15.98;;;;;;;;;;4904509;29;20048;-74
2023/12/12 11:31:05;;;;;;;24.95;15.98;;;;;;;;;;4909483;29;20066;-75
2023/12/12 11:33:31;;;;;;;22.73;15.77;;;;;;;;;;4907986;29;20036;-75
2023/12/12 11:35:57;;;;;;;28.23;16.55;;;;;;;;;;4916473;29;20040;-73
2023/12/12 11:38:31;;;;;;;25.77;16.38;;;;;;;;;;4913021;29;20032;-71
2023/12/12 11:41:10;;;;;;;33.53;21.05;;;;;;;;;;4901283;29;20062;-75
2023/12/12 11:43:39;;;;;;;25.52;17.30;;;;;;;;;;4903580;29;20557;-75
2023/12/12 11:46:16;;;;;;;26.85;17.98;;;;;;;;;;4922549;29;20116;-74
2023/12/12 11:48:42;;;;;;;32.15;17.73;;;;;;;;;;4907850;29;20043;-78
2023/12/12 11:51:26;;;;;;;28.73;19.50;;;;;;;;;;4902466;29;20036;-79
2023/12/12 11:53:53;;;;;;;26.95;18.85;;;;;;;;;;4905516;29;20084;-75
2023/12/12 11:56:19;;;;;;;25.25;18.45;;;;;;;;;;4899749;29;20040;-72
2023/12/12 11:58:45;;;;;;;29.90;18.83;;;;;;;;;;4904312;29;20394;-74
2023/12/12 12:01:19;;;;;;;33.40;20.15;;;;;;;;;;4923270;29;20038;-74
2023/12/12 12:03:45;;;;;;;32.00;21.80;;;;;;;;;;4921799;29;20036;-74
2023/12/12 12:06:12;;;;;;;30.30;20.35;;;;;;;;;;4914659;29;20078;-74
2023/12/12 12:08:38;;;;;;;37.55;20.15;;;;;;;;;;4914706;29;20032;-74
2023/12/12 12:11:04;;;;;;;33.22;21.15;;;;;;;;;;4912538;29;20028;-74
2023/12/12 12:13:40;;;;;;;32.80;20.65;;;;;;;;;;4913141;29;20024;-75
2023/12/12 12:16:06;;;;;;;27.58;18.98;;;;;;;;;;4915463;29;20040;-73
2023/12/12 12:18:32;;;;;;;33.67;20.80;;;;;;;;;;4911117;29;20024;-73
2023/12/12 12:20:58;;;;;;;32.67;21.35;;;;;;;;;;4897364;29;20368;-74
2023/12/12 12:23:25;;;;;;;36.45;21.85;;;;;;;;;;4898789;29;20020;-74
2023/12/12 12:25:51;;;;;;;36.28;20.50;;;;;;;;;;4910800;29;20043;-74
2023/12/12 12:28:17;;;;;;;36.47;21.67;;;;;;;;;;4920856;29;20494;-74
2023/12/12 12:30:46;;;;;;;32.58;20.42;;;;;;;;;;4911280;29;20036;-76
2023/12/12 12:33:13;;;;;;;32.50;19.50;;;;;;;;;;4901752;29;20382;-75
2023/12/12 12:35:50;;;;;;;33.05;21.33;;;;;;;;;;4912687;29;20024;-75
2023/12/12 12:38:23;;;;;;;32.97;19.65;;;;;;;;;;4905055;29;20032;-74
2023/12/12 12:40:49;;;;;;;35.70;20.73;;;;;;;;;;4901666;29;20040;-76
2023/12/12 12:43:17;;;;;;;35.22;20.05;;;;;;;;;;4907923;29;20561;-76
2023/12/12 12:45:43;;;;;;;35.58;21.70;;;;;;;;;;4907796;29;20036;-75
2023/12/12 12:48:09;;;;;;;40.13;21.45;;;;;;;;;;4908307;29;20024;-76
2023/12/12 12:50:35;;;;;;;39.33;23.17;;;;;;;;;;4906987;29;20262;-76
2023/12/12 12:53:03;;;;;;;41.25;23.35;;;;;;;;;;4903831;29;20028;-73
2023/12/12 12:55:29;;;;;;;38.83;21.10;;;;;;;;;;4912335;29;20033;-73
2023/12/12 12:57:55;;;;;;;43.15;21.52;;;;;;;;;;4910486;29;20192;-73
2023/12/12 13:00:21;;;;;;;37.92;21.33;;;;;;;;;;4915296;29;20402;-77
2023/12/12 13:02:48;;;;;;;37.42;20.85;;;;;;;;;;4933457;29;20052;-75
2023/12/12 13:05:15;;;;;;;35.65;20.38;;;;;;;;;;4915561;29;20028;-76
2023/12/12 13:07:42;;;;;;;39.63;20.45;;;;;;;;;;4900257;29;20168;-74
2023/12/12 13:10:10;;;;;;;40.78;22.60;;;;;;;;;;4896260;29;20036;-74
2023/12/12 13:12:38;;;;;;;36.33;20.00;;;;;;;;;;4912075;29;20163;-80
2023/12/12 13:15:05;;;;;;;34.38;19.55;;;;;;;;;;4913317;29;20514;-74
2023/12/12 13:17:31;;;;;;;36.15;20.25;;;;;;;;;;4925306;29;20132;-75
2023/12/12 13:20:00;;;;;;;37.00;21.50;;;;;;;;;;4914815;29;20064;-74
2023/12/12 13:22:26;;;;;;;29.98;19.45;;;;;;;;;;4914082;29;20038;-74
2023/12/12 13:24:53;;;;;;;35.25;20.73;;;;;;;;;;4913844;29;20099;-75
2023/12/12 13:27:20;;;;;;;42.83;23.15;;;;;;;;;;4911773;29;20031;-76
2023/12/12 13:29:46;;;;;;;50.33;23.48;;;;;;;;;;4912011;29;20040;-80
2023/12/12 13:32:12;;;;;;;48.05;25.45;;;;;;;;;;4922708;29;20039;-75
2023/12/12 13:34:38;;;;;;;50.58;24.73;;;;;;;;;;4911138;29;20051;-74
2023/12/12 13:37:04;;;;;;;56.55;26.88;;;;;;;;;;4904266;29;20044;-74
2023/12/12 13:39:31;;;;;;;52.20;23.65;;;;;;;;;;4895440;29;20471;-77
2023/12/12 13:41:57;;;;;;;52.05;25.25;;;;;;;;;;4895589;29;20025;-74
2023/12/12 13:44:23;;;;;;;58.78;26.60;;;;;;;;;;4912061;29;20028;-74
2023/12/12 13:46:49;;;;;;;50.75;24.33;;;;;;;;;;4913796;29;20039;-74
2023/12/12 13:49:15;;;;;;;56.72;26.73;;;;;;;;;;4913668;29;20035;-74
2023/12/12 13:51:41;;;;;;;59.53;25.90;;;;;;;;;;4913179;29;20917;-77
2023/12/12 13:54:08;;;;;;;61.33;25.63;;;;;;;;;;4914368;29;20036;-74
2023/12/12 13:56:34;;;;;;;58.33;27.08;;;;;;;;;;4907299;29;20467;-75
2023/12/12 13:59:00;;;;;;;59.15;25.80;;;;;;;;;;4905244;29;20036;-79
2023/12/12 14:01:27;;;;;;;65.50;26.70;;;;;;;;;;4924325;29;20745;-80
2023/12/12 14:03:53;;;;;;;58.33;24.23;;;;;;;;;;4916578;29;20055;-74
2023/12/12 14:06:20;;;;;;;70.30;27.30;;;;;;;;;;4909107;29;20052;-76
2023/12/12 14:08:46;;;;;;;64.10;24.83;;;;;;;;;;4894788;29;20029;-76
2023/12/12 14:11:13;;;;;;;61.35;26.38;;;;;;;;;;4895822;29;20020;-77
2023/12/12 14:13:39;;;;;;;76.35;27.98;;;;;;;;;;4894408;29;20067;-77
2023/12/12 14:16:05;;;;;;;63.05;27.35;;;;;;;;;;4908510;29;20080;-74
2023/12/12 14:18:31;;;;;;;68.68;26.90;;;;;;;;;;4909646;29;20028;-80
2023/12/12 14:20:57;;;;;;;69.20;27.90;;;;;;;;;;4906340;29;20119;-78